createdAt,value
2023-10-20T00:01:30.840Z,30.00
2023-10-20T00:04:33.067Z,32.08
2023-10-20T00:07:35.208Z,28.55
2023-10-20T00:10:38.021Z,28.80
2023-10-20T00:13:50.408Z,32.00
2023-10-20T00:16:52.510Z,28.63
2023-10-20T00:19:54.578Z,31.98
2023-10-20T00:22:56.906Z,29.88
2023-10-20T00:25:59.967Z,29.13
2023-10-20T00:29:01.944Z,32.33
2023-10-20T00:32:05.831Z,26.50
2023-10-20T00:35:14.680Z,31.42
2023-10-20T00:38:17.079Z,28.98
2023-10-20T00:41:19.131Z,30.33
2023-10-20T00:44:21.415Z,28.00
2023-10-20T00:47:23.593Z,29.80
2023-10-20T00:50:25.843Z,30.48
2023-10-20T00:53:29.495Z,29.67
2023-10-20T00:56:31.911Z,32.28
2023-10-20T00:59:33.796Z,30.97
2023-10-20T01:02:39.370Z,30.80
2023-10-20T01:05:41.472Z,31.50
2023-10-20T01:08:43.513Z,30.65
2023-10-20T01:11:46.344Z,29.65
2023-10-20T01:14:48.368Z,27.90
2023-10-20T01:17:51.104Z,25.77
2023-10-20T01:20:53.184Z,32.53
2023-10-20T01:23:55.752Z,25.30
2023-10-20T01:26:57.672Z,25.05
2023-10-20T01:29:59.630Z,29.27
2023-10-20T01:33:01.616Z,26.08
2023-10-20T01:36:03.748Z,28.80
2023-10-20T01:39:06.240Z,23.75
2023-10-20T01:42:08.615Z,26.42
2023-10-20T01:45:11.219Z,27.70
2023-10-20T01:52:20.860Z,31.55
2023-10-20T01:55:22.946Z,28.80
2023-10-20T01:58:24.906Z,26.58
2023-10-20T02:01:28.215Z,27.27
2023-10-20T02:04:30.301Z,26.38
2023-10-20T02:07:32.181Z,23.73
2023-10-20T02:10:34.194Z,26.63
2023-10-20T02:13:36.927Z,23.50
2023-10-20T02:20:26.390Z,27.65
2023-10-20T02:23:30.982Z,25.83
2023-10-20T02:26:33.004Z,22.55
2023-10-20T02:29:34.943Z,28.55
2023-10-20T02:33:19.064Z,28.03
2023-10-20T02:37:20.019Z,30.58
2023-10-20T02:40:40.544Z,24.75
2023-10-20T02:44:00.146Z,29.77
2023-10-20T02:47:04.632Z,23.42
2023-10-20T02:51:09.031Z,24.13
2023-10-20T02:54:57.490Z,25.95
2023-10-20T02:58:57.940Z,31.70
2023-10-20T03:03:00.236Z,23.40
2023-10-20T03:07:02.135Z,26.23
2023-10-20T03:10:04.361Z,26.13
2023-10-20T03:13:06.490Z,26.13
2023-10-20T03:16:08.496Z,25.15
2023-10-20T03:19:12.964Z,29.48
2023-10-20T03:22:14.948Z,26.92
2023-10-20T03:25:19.162Z,24.30
2023-10-20T03:28:21.129Z,27.38
2023-10-20T03:31:23.414Z,25.35
2023-10-20T03:34:25.389Z,29.23
2023-10-20T03:37:28.598Z,26.52
2023-10-20T03:40:41.601Z,29.23
2023-10-20T03:43:43.429Z,27.25
2023-10-20T03:46:57.730Z,26.02
2023-10-20T03:50:01.996Z,27.17
2023-10-20T03:53:04.308Z,25.05
2023-10-20T03:56:08.106Z,22.17
2023-10-20T03:59:14.946Z,30.85
2023-10-20T04:02:17.026Z,57.10
2023-10-20T04:05:20.928Z,73.32
2023-10-20T04:08:24.452Z,45.67
2023-10-20T04:11:26.474Z,31.73
2023-10-20T04:14:28.312Z,27.08
2023-10-20T04:17:30.326Z,29.70
2023-10-20T04:20:38.919Z,29.98
2023-10-20T04:23:41.562Z,29.90
2023-10-20T04:26:43.808Z,28.30
2023-10-20T04:30:05.720Z,34.47
2023-10-20T04:33:26.114Z,24.38
2023-10-20T04:36:46.879Z,28.05
2023-10-20T04:40:07.270Z,28.80
2023-10-20T04:43:15.595Z,24.50
2023-10-20T04:46:32.416Z,25.45
2023-10-20T04:49:52.902Z,27.30
2023-10-20T04:53:12.345Z,21.50
2023-10-20T04:56:16.928Z,24.60
2023-10-20T04:59:24.247Z,22.70
2023-10-20T05:02:40.800Z,25.33
2023-10-20T05:05:54.852Z,21.45
2023-10-20T05:08:57.518Z,23.70
2023-10-20T05:11:59.429Z,23.90
2023-10-20T05:15:01.392Z,26.17
2023-10-20T05:18:03.927Z,25.15
2023-10-20T05:21:09.676Z,29.17
2023-10-20T05:24:12.012Z,25.08
2023-10-20T05:27:13.986Z,25.95
2023-10-20T05:30:15.965Z,27.70
2023-10-20T05:33:17.958Z,24.00
2023-10-20T05:36:19.949Z,32.35
2023-10-20T05:39:22.835Z,32.45
2023-10-20T05:42:25.223Z,28.95
2023-10-20T05:45:30.219Z,27.77
2023-10-20T05:48:32.491Z,23.63
2023-10-20T05:51:34.455Z,25.05
2023-10-20T05:54:36.557Z,27.35
2023-10-20T05:57:38.455Z,28.00
2023-10-20T06:00:59.519Z,29.90
2023-10-20T06:04:02.886Z,22.63
2023-10-20T06:07:05.554Z,27.45
2023-10-20T06:10:10.459Z,22.67
2023-10-20T06:13:14.787Z,26.58
2023-10-20T06:16:16.682Z,27.43
2023-10-20T06:19:18.638Z,23.98
2023-10-20T06:22:20.679Z,27.30
2023-10-20T06:25:22.962Z,23.75
2023-10-20T06:28:24.847Z,22.35
2023-10-20T06:31:36.103Z,27.67
2023-10-20T06:34:42.284Z,27.88
2023-10-20T06:37:56.288Z,21.00
2023-10-20T06:40:58.575Z,21.73
2023-10-20T06:44:00.479Z,25.98
2023-10-20T06:47:02.750Z,23.53
2023-10-20T06:50:04.880Z,24.75
2023-10-20T06:53:07.223Z,22.63
2023-10-20T06:56:16.395Z,21.85
2023-10-20T06:59:21.648Z,23.15
2023-10-20T07:02:23.799Z,24.00
2023-10-20T07:05:25.980Z,21.98
2023-10-20T07:08:28.623Z,22.90
2023-10-20T07:11:30.697Z,22.02
2023-10-20T07:14:32.950Z,22.15
2023-10-20T07:17:35.892Z,21.90
2023-10-20T07:20:40.201Z,21.73
2023-10-20T07:23:43.166Z,20.98
2023-10-20T07:26:45.388Z,20.45
2023-10-20T07:29:47.458Z,20.65
2023-10-20T07:32:51.397Z,18.93
2023-10-20T07:35:53.661Z,16.83
2023-10-20T07:38:56.064Z,16.92
2023-10-20T07:41:58.692Z,13.82
2023-10-20T07:45:01.449Z,14.88
2023-10-20T07:48:06.392Z,14.60
2023-10-20T07:51:08.500Z,13.02
2023-10-20T07:54:15.955Z,13.88
2023-10-20T07:57:25.908Z,13.25
2023-10-20T08:00:30.828Z,15.10
2023-10-20T08:03:33.195Z,23.80
2023-10-20T08:06:36.545Z,12.85
2023-10-20T08:09:38.994Z,12.07
2023-10-20T08:12:40.907Z,16.55
2023-10-20T08:15:43.499Z,10.88
2023-10-20T08:18:46.266Z,13.37
2023-10-20T08:21:48.838Z,13.77
2023-10-20T08:24:50.710Z,15.52
2023-10-20T08:27:52.914Z,13.95
2023-10-20T08:31:18.872Z,18.05
2023-10-20T08:34:21.914Z,20.37
2023-10-20T08:37:24.003Z,21.10
2023-10-20T08:40:26.459Z,12.65
2023-10-20T08:43:28.956Z,20.02
2023-10-20T08:46:31.061Z,12.57
2023-10-20T08:49:33.721Z,13.83
2023-10-20T08:52:37.647Z,15.15
2023-10-20T08:55:43.175Z,14.38
2023-10-20T08:58:48.307Z,14.80
2023-10-20T09:01:52.833Z,12.95
2023-10-20T09:04:54.838Z,13.07
2023-10-20T09:08:00.783Z,12.00
2023-10-20T09:11:03.263Z,15.48
2023-10-20T09:14:07.708Z,14.52
2023-10-20T09:17:21.536Z,15.70
2023-10-20T09:20:24.941Z,13.93
2023-10-20T09:23:27.025Z,19.17
2023-10-20T09:26:30.454Z,18.58
2023-10-20T09:29:33.209Z,17.67
2023-10-20T09:32:39.219Z,15.52
2023-10-20T09:35:42.886Z,18.60
2023-10-20T09:38:46.138Z,14.52
2023-10-20T09:41:50.852Z,14.52
2023-10-20T09:45:26.974Z,17.55
2023-10-20T09:48:28.923Z,15.75
2023-10-20T09:51:33.040Z,17.73
2023-10-20T09:54:36.006Z,16.13
2023-10-20T09:57:38.128Z,13.75
2023-10-20T10:00:43.621Z,12.55
2023-10-20T10:04:04.683Z,13.00
2023-10-20T10:07:10.799Z,11.70
2023-10-20T10:10:21.276Z,9.65
2023-10-20T10:13:33.833Z,14.73
2023-10-20T10:16:50.929Z,13.20
2023-10-20T10:19:54.816Z,11.07
2023-10-20T10:23:10.486Z,13.00
2023-10-20T10:26:16.145Z,11.23
2023-10-20T10:29:20.103Z,11.15
2023-10-20T10:32:24.064Z,12.35
2023-10-20T10:35:27.208Z,16.25
2023-10-20T10:38:32.324Z,15.67
2023-10-20T10:41:35.611Z,8.70
2023-10-20T10:57:52.356Z,12.00
2023-10-20T11:19:45.824Z,8.25
2023-10-20T11:39:54.785Z,7.40
2023-10-20T11:42:57.242Z,9.82
2023-10-20T11:45:59.307Z,8.25
2023-10-20T11:49:01.284Z,9.77
2023-10-20T11:52:07.122Z,9.18
2023-10-20T11:55:11.606Z,6.50
2023-10-20T11:58:13.835Z,7.00
2023-10-20T12:01:15.911Z,12.07
2023-10-20T12:04:18.014Z,9.83
2023-10-20T12:07:20.176Z,9.38
2023-10-20T12:10:25.072Z,7.40
2023-10-20T12:13:27.153Z,15.30
2023-10-20T12:16:29.213Z,9.00
2023-10-20T12:19:31.197Z,5.00
2023-10-20T12:22:33.145Z,5.75
2023-10-20T12:25:35.152Z,11.73
2023-10-20T12:28:37.002Z,7.55
2023-10-20T12:31:38.970Z,7.63
2023-10-20T12:34:41.146Z,9.70
2023-10-20T12:37:43.132Z,14.68
2023-10-20T12:40:45.014Z,11.40
2023-10-20T12:43:48.512Z,15.57
2023-10-20T12:46:51.812Z,13.20
2023-10-20T12:49:57.024Z,11.57
2023-10-20T12:52:59.285Z,11.38
2023-10-20T12:56:01.250Z,6.03
2023-10-20T12:59:03.365Z,6.22
2023-10-20T13:02:05.544Z,6.53
2023-10-20T13:05:08.437Z,7.03
2023-10-20T13:08:10.270Z,7.30
2023-10-20T13:11:12.892Z,12.40
2023-10-20T13:14:14.801Z,8.05
2023-10-20T13:17:16.841Z,16.23
2023-10-20T13:20:18.913Z,7.63
2023-10-20T13:23:20.897Z,10.65
2023-10-20T13:26:22.876Z,7.80
2023-10-20T13:29:24.855Z,6.78
2023-10-20T13:32:26.901Z,11.68
2023-10-20T13:35:28.877Z,12.57
2023-10-20T13:38:33.056Z,10.15
2023-10-20T13:41:35.176Z,8.10
2023-10-20T13:44:37.624Z,12.02
2023-10-20T13:47:39.723Z,5.63
2023-10-20T13:50:41.807Z,9.90
2023-10-20T13:53:43.866Z,9.30
2023-10-20T13:56:45.914Z,11.23
2023-10-20T13:59:48.072Z,10.25
2023-10-20T14:02:50.140Z,8.93
2023-10-20T14:05:56.029Z,11.27
2023-10-20T14:08:58.371Z,11.27
2023-10-20T14:12:00.364Z,10.85
2023-10-20T14:15:03.550Z,8.35
2023-10-20T14:18:05.845Z,12.52
2023-10-20T14:21:09.448Z,9.27
2023-10-20T14:24:11.341Z,10.85
2023-10-20T14:27:14.302Z,9.70
2023-10-20T14:30:16.190Z,6.65
2023-10-20T14:33:18.103Z,8.95
2023-10-20T14:36:20.669Z,9.07
2023-10-20T14:56:17.527Z,20.58
2023-10-20T14:59:19.479Z,10.17
2023-10-20T15:02:21.346Z,9.68
2023-10-20T15:05:24.219Z,14.00
2023-10-20T15:08:26.369Z,6.90
2023-10-20T15:11:30.687Z,10.65
2023-10-20T15:14:33.093Z,14.60
2023-10-20T15:17:35.141Z,16.60
2023-10-20T15:20:41.362Z,14.45
2023-10-20T15:23:43.291Z,16.35
2023-10-20T15:26:47.060Z,12.38
2023-10-20T15:29:49.225Z,20.07
2023-10-20T15:32:51.212Z,17.88
2023-10-20T15:35:53.174Z,12.80
2023-10-20T15:38:56.058Z,15.00
2023-10-20T15:41:58.115Z,9.02
2023-10-20T15:45:00.566Z,12.27
2023-10-20T15:48:04.446Z,17.50
2023-10-20T15:51:06.662Z,16.92
2023-10-20T15:54:09.010Z,14.60
2023-10-20T15:57:11.324Z,14.55
2023-10-20T16:00:14.178Z,11.50
2023-10-20T16:03:19.845Z,18.45
2023-10-20T16:06:22.503Z,16.70
2023-10-20T16:09:24.423Z,12.32
2023-10-20T16:12:26.310Z,14.80
2023-10-20T16:15:29.557Z,14.27
2023-10-20T16:18:31.521Z,20.98
2023-10-20T16:21:33.527Z,13.32
2023-10-20T16:24:38.260Z,14.60
2023-10-20T16:27:42.903Z,18.73
2023-10-20T16:30:47.339Z,12.53
2023-10-20T16:33:49.257Z,17.35
2023-10-20T16:36:51.261Z,9.57
2023-10-20T16:39:53.129Z,14.65
2023-10-20T16:42:55.036Z,11.98
2023-10-20T16:45:57.037Z,8.70
2023-10-20T16:48:59.200Z,12.85
2023-10-20T16:52:01.177Z,17.77
2023-10-20T16:55:03.140Z,9.18
2023-10-20T16:58:05.997Z,14.98
2023-10-20T17:01:08.275Z,18.97
2023-10-20T17:04:10.610Z,15.63
2023-10-20T17:07:12.687Z,29.38
2023-10-20T17:10:14.704Z,15.00
2023-10-20T17:13:16.777Z,17.17
2023-10-20T17:16:19.063Z,15.23
2023-10-20T17:19:20.961Z,23.80
2023-10-20T17:22:22.890Z,10.73
2023-10-20T17:25:24.749Z,21.23
2023-10-20T17:28:26.936Z,21.00
2023-10-20T17:31:28.886Z,14.57
2023-10-20T17:34:31.581Z,20.52
2023-10-20T17:37:33.447Z,11.48
2023-10-20T17:40:36.162Z,19.25
2023-10-20T17:43:38.687Z,21.75
2023-10-20T17:46:41.338Z,16.50
2023-10-20T17:49:43.276Z,20.70
2023-10-20T17:52:46.246Z,19.48
2023-10-20T17:55:49.063Z,17.65
2023-10-20T18:02:52.143Z,12.97
2023-10-20T18:05:54.776Z,18.20
2023-10-20T18:08:57.612Z,21.55
2023-10-20T18:11:59.532Z,14.85
2023-10-20T18:15:01.755Z,23.23
2023-10-20T18:18:07.183Z,17.73
2023-10-20T18:21:09.463Z,16.33
2023-10-20T18:24:11.505Z,14.07
2023-10-20T18:27:13.387Z,14.10
2023-10-20T18:30:15.581Z,18.58
2023-10-20T18:33:17.804Z,12.23
2023-10-20T18:36:19.722Z,17.65
2023-10-20T18:39:23.233Z,13.20
2023-10-20T18:42:26.166Z,17.90
2023-10-20T18:45:28.711Z,12.13
2023-10-20T18:48:30.855Z,12.13
2023-10-20T18:51:33.684Z,17.73
2023-10-20T18:54:35.600Z,13.68
2023-10-20T18:57:37.537Z,12.75
2023-10-20T19:00:39.671Z,12.93
2023-10-20T19:03:42.104Z,16.47
2023-10-20T19:06:44.569Z,17.02
2023-10-20T19:09:47.015Z,15.68
2023-10-20T19:12:49.246Z,11.32
2023-10-20T19:15:51.521Z,13.93
2023-10-20T19:19:43.573Z,11.43
2023-10-20T19:22:46.631Z,12.40
2023-10-20T19:26:01.613Z,16.67
2023-10-20T19:29:05.661Z,17.77
2023-10-20T19:32:08.999Z,18.92
2023-10-20T19:35:11.119Z,19.33
2023-10-20T19:38:13.560Z,19.55
2023-10-20T19:41:15.595Z,16.92
2023-10-20T19:44:17.489Z,18.13
2023-10-20T19:47:19.410Z,21.73
2023-10-20T19:50:21.343Z,16.20
2023-10-20T19:53:24.124Z,12.05
2023-10-20T19:56:26.130Z,19.65
2023-10-20T19:59:27.979Z,12.88
2023-10-20T20:02:29.985Z,16.95
2023-10-20T20:05:32.093Z,13.73
2023-10-20T20:08:34.131Z,23.40
2023-10-20T20:11:36.158Z,12.95
2023-10-20T20:14:38.121Z,17.98
2023-10-20T20:17:40.217Z,16.05
2023-10-20T20:20:42.200Z,20.73
2023-10-20T20:23:55.068Z,22.52
2023-10-20T20:26:57.052Z,12.70
2023-10-20T20:29:59.014Z,16.67
2023-10-20T20:33:01.001Z,19.25
2023-10-20T20:36:05.635Z,21.17
2023-10-20T20:39:07.638Z,14.73
2023-10-20T20:42:10.055Z,16.58
2023-10-20T20:45:12.171Z,12.63
2023-10-20T20:48:14.259Z,13.75
2023-10-20T20:51:16.317Z,15.03
2023-10-20T20:54:18.463Z,17.10
2023-10-20T20:57:20.306Z,17.00
2023-10-20T21:00:22.171Z,19.23
2023-10-20T21:03:24.137Z,17.20
2023-10-20T21:06:26.171Z,15.33
2023-10-20T21:09:28.849Z,10.55
2023-10-20T21:12:30.965Z,17.20
2023-10-20T21:15:36.977Z,18.23
2023-10-20T21:18:39.465Z,16.80
2023-10-20T21:21:41.432Z,19.00
2023-10-20T21:24:43.651Z,19.08
2023-10-20T21:27:45.657Z,15.38
2023-10-20T21:30:47.783Z,17.40
2023-10-20T21:33:49.761Z,14.18
2023-10-20T21:36:51.679Z,15.83
2023-10-20T21:39:53.660Z,16.60
2023-10-20T21:42:55.522Z,16.45
2023-10-20T21:45:58.721Z,29.65
2023-10-20T21:49:00.764Z,13.75
2023-10-20T21:52:02.667Z,20.07
2023-10-20T21:55:05.142Z,13.68
2023-10-20T21:58:07.277Z,17.73
2023-10-20T22:01:10.316Z,13.68
2023-10-20T22:04:12.604Z,16.15
2023-10-20T22:07:14.775Z,16.60
2023-10-20T22:10:16.668Z,17.17
2023-10-20T22:13:18.974Z,11.98
2023-10-20T22:16:20.838Z,16.13
2023-10-20T22:19:22.773Z,15.80
2023-10-20T22:22:24.666Z,14.37
2023-10-20T22:25:26.578Z,12.02
2023-10-20T22:28:31.234Z,13.88
2023-10-20T22:31:35.939Z,19.30
2023-10-20T22:34:37.832Z,13.43
2023-10-20T22:37:39.650Z,17.63
2023-10-20T22:40:41.505Z,17.15
2023-10-20T22:43:43.350Z,19.25
2023-10-20T22:46:45.243Z,16.73
2023-10-20T22:49:47.198Z,10.75
2023-10-20T22:52:49.157Z,16.00
2023-10-20T22:55:51.035Z,14.23
2023-10-20T22:58:52.913Z,18.02
2023-10-20T23:01:55.004Z,13.68
2023-10-20T23:04:57.074Z,15.32
2023-10-20T23:08:00.158Z,10.13
2023-10-20T23:11:02.023Z,14.02
2023-10-20T23:14:04.349Z,11.68
2023-10-20T23:17:06.337Z,13.10
2023-10-20T23:20:08.800Z,9.35
2023-10-20T23:23:10.999Z,14.20
2023-10-20T23:26:12.850Z,10.40
2023-10-20T23:29:14.725Z,15.70
2023-10-20T23:32:16.605Z,19.95
2023-10-20T23:35:19.999Z,17.27
2023-10-20T23:38:21.933Z,19.30
2023-10-20T23:41:23.963Z,16.83
2023-10-20T23:44:25.929Z,14.80
2023-10-20T23:47:27.928Z,16.02
2023-10-20T23:50:29.820Z,15.80
2023-10-20T23:53:31.736Z,15.00
2023-10-20T23:56:33.862Z,17.00
2023-10-20T23:59:35.975Z,13.07
